sensor_id;sensor_type;location;lat;lon;timestamp;pressure;altitude;pressure_sealevel;temperature;humidity
62800;BME280;48842;51.046;13.796;2023-09-08T00:02:05;100921.25;;;21.54;nan
62800;BME280;48842;51.046;13.796;2023-09-08T00:04:30;100915.09;;;21.50;nan
62800;BME280;48842;51.046;13.796;2023-09-08T00:06:57;100913.44;;;21.46;nan
62800;BME280;48842;51.046;13.796;2023-09-08T00:09:23;100917.00;;;21.47;nan
62800;BME280;48842;51.046;13.796;2023-09-08T00:11:48;100913.38;;;21.48;nan
62800;BME280;48842;51.046;13.796;2023-09-08T00:14:13;100917.91;;;21.45;nan
62800;BME280;48842;51.046;13.796;2023-09-08T00:16:39;100919.72;;;21.45;nan
62800;BME280;48842;51.046;13.796;2023-09-08T00:19:10;100915.38;;;21.41;nan
62800;BME280;48842;51.046;13.796;2023-09-08T00:21:36;100924.25;;;21.41;nan
62800;BME280;48842;51.046;13.796;2023-09-08T00:24:01;100919.94;;;21.37;nan
62800;BME280;48842;51.046;13.796;2023-09-08T00:26:27;100916.44;;;21.35;nan
62800;BME280;48842;51.046;13.796;2023-09-08T00:28:52;100913.88;;;21.32;nan
62800;BME280;48842;51.046;13.796;2023-09-08T00:31:17;100921.09;;;21.28;nan
62800;BME280;48842;51.046;13.796;2023-09-08T00:33:43;100915.00;;;21.25;nan
62800;BME280;48842;51.046;13.796;2023-09-08T00:36:09;100911.59;;;21.20;nan
62800;BME280;48842;51.046;13.796;2023-09-08T00:38:34;100912.53;;;21.19;nan
62800;BME280;48842;51.046;13.796;2023-09-08T00:41:00;100916.06;;;21.19;nan
62800;BME280;48842;51.046;13.796;2023-09-08T00:43:26;100910.78;;;21.18;nan
62800;BME280;48842;51.046;13.796;2023-09-08T00:45:52;100913.50;;;21.16;nan
62800;BME280;48842;51.046;13.796;2023-09-08T00:48:20;100913.53;;;21.15;nan
62800;BME280;48842;51.046;13.796;2023-09-08T00:50:45;100918.03;;;21.13;nan
62800;BME280;48842;51.046;13.796;2023-09-08T00:53:11;100920.75;;;21.11;nan
62800;BME280;48842;51.046;13.796;2023-09-08T00:55:38;100922.63;;;21.07;nan
62800;BME280;48842;51.046;13.796;2023-09-08T00:58:04;100925.41;;;21.04;nan
62800;BME280;48842;51.046;13.796;2023-09-08T01:00:29;100921.88;;;21.02;nan
62800;BME280;48842;51.046;13.796;2023-09-08T01:02:55;100927.31;;;20.99;nan
62800;BME280;48842;51.046;13.796;2023-09-08T01:05:20;100929.97;;;20.99;nan
62800;BME280;48842;51.046;13.796;2023-09-08T01:07:46;100924.75;;;20.96;nan
62800;BME280;48842;51.046;13.796;2023-09-08T01:10:13;100925.69;;;20.93;nan
62800;BME280;48842;51.046;13.796;2023-09-08T01:12:39;100923.09;;;20.92;nan
62800;BME280;48842;51.046;13.796;2023-09-08T01:15:05;100917.75;;;20.92;nan
62800;BME280;48842;51.046;13.796;2023-09-08T01:17:30;100916.03;;;20.89;nan
62800;BME280;48842;51.046;13.796;2023-09-08T01:20:00;100917.84;;;20.89;nan
62800;BME280;48842;51.046;13.796;2023-09-08T01:25:25;100914.38;;;20.87;nan
62800;BME280;48842;51.046;13.796;2023-09-08T01:27:55;100924.19;;;20.85;nan
62800;BME280;48842;51.046;13.796;2023-09-08T01:30:24;100925.16;;;20.82;nan
62800;BME280;48842;51.046;13.796;2023-09-08T01:32:50;100919.84;;;20.81;nan
62800;BME280;48842;51.046;13.796;2023-09-08T01:35:17;100918.19;;;20.78;nan
62800;BME280;48842;51.046;13.796;2023-09-08T01:37:45;100919.94;;;20.78;nan
62800;BME280;48842;51.046;13.796;2023-09-08T01:40:11;100915.53;;;20.78;nan
62800;BME280;48842;51.046;13.796;2023-09-08T01:42:37;100917.34;;;20.76;nan
62800;BME280;48842;51.046;13.796;2023-09-08T01:45:03;100917.44;;;20.73;nan
62800;BME280;48842;51.046;13.796;2023-09-08T01:47:29;100926.38;;;20.70;nan
62800;BME280;48842;51.046;13.796;2023-09-08T01:49:55;100915.81;;;20.67;nan
62800;BME280;48842;51.046;13.796;2023-09-08T01:52:21;100913.22;;;20.64;nan
62800;BME280;48842;51.046;13.796;2023-09-08T01:54:46;100917.72;;;20.62;nan
62800;BME280;48842;51.046;13.796;2023-09-08T01:57:12;100916.88;;;20.60;nan
62800;BME280;48842;51.046;13.796;2023-09-08T01:59:37;100908.06;;;20.58;nan
62800;BME280;48842;51.046;13.796;2023-09-08T02:02:04;100908.16;;;20.55;nan
62800;BME280;48842;51.046;13.796;2023-09-08T02:04:29;100902.91;;;20.52;nan
62800;BME280;48842;51.046;13.796;2023-09-08T02:06:55;100910.06;;;20.50;nan
62800;BME280;48842;51.046;13.796;2023-09-08T02:09:20;100917.22;;;20.48;nan
62800;BME280;48842;51.046;13.796;2023-09-08T02:11:45;100908.38;;;20.47;nan
62800;BME280;48842;51.046;13.796;2023-09-08T02:14:12;100902.16;;;20.47;nan
62800;BME280;48842;51.046;13.796;2023-09-08T02:16:37;100903.06;;;20.46;nan
62800;BME280;48842;51.046;13.796;2023-09-08T02:19:02;100909.38;;;20.43;nan
62800;BME280;48842;51.046;13.796;2023-09-08T02:21:28;100903.19;;;20.41;nan
62800;BME280;48842;51.046;13.796;2023-09-08T02:23:53;100905.94;;;20.38;nan
62800;BME280;48842;51.046;13.796;2023-09-08T02:26:18;100910.47;;;20.36;nan
62800;BME280;48842;51.046;13.796;2023-09-08T02:28:44;100914.97;;;20.32;nan
62800;BME280;48842;51.046;13.796;2023-09-08T02:31:09;100912.41;;;20.29;nan
62800;BME280;48842;51.046;13.796;2023-09-08T02:33:34;100918.66;;;20.28;nan
62800;BME280;48842;51.046;13.796;2023-09-08T02:36:04;100918.72;;;20.25;nan
62800;BME280;48842;51.046;13.796;2023-09-08T02:38:31;100919.75;;;20.21;nan
62800;BME280;48842;51.046;13.796;2023-09-08T02:40:56;100920.78;;;20.15;nan
62800;BME280;48842;51.046;13.796;2023-09-08T02:43:22;100917.31;;;20.12;nan
62800;BME280;48842;51.046;13.796;2023-09-08T02:45:47;100919.09;;;20.11;nan
62800;BME280;48842;51.046;13.796;2023-09-08T02:48:12;100921.81;;;20.10;nan
62800;BME280;48842;51.046;13.796;2023-09-08T02:50:37;100916.56;;;20.07;nan
62800;BME280;48842;51.046;13.796;2023-09-08T02:53:03;100913.88;;;20.08;nan
62800;BME280;48842;51.046;13.796;2023-09-08T02:55:28;100905.94;;;20.07;nan
62800;BME280;48842;51.046;13.796;2023-09-08T02:57:54;100912.03;;;20.10;nan
62800;BME280;48842;51.046;13.796;2023-09-08T03:00:20;100908.50;;;20.10;nan
62800;BME280;48842;51.046;13.796;2023-09-08T03:02:45;100916.47;;;20.10;nan
62800;BME280;48842;51.046;13.796;2023-09-08T03:05:11;100903.31;;;20.05;nan
62800;BME280;48842;51.046;13.796;2023-09-08T03:07:36;100905.13;;;20.03;nan
62800;BME280;48842;51.046;13.796;2023-09-08T03:10:03;100898.94;;;20.02;nan
62800;BME280;48842;51.046;13.796;2023-09-08T03:12:29;100887.44;;;20.00;nan
62800;BME280;48842;51.046;13.796;2023-09-08T03:14:55;100890.16;;;19.99;nan
62800;BME280;48842;51.046;13.796;2023-09-08T03:17:20;100885.75;;;19.98;nan
62800;BME280;48842;51.046;13.796;2023-09-08T03:19:45;100884.88;;;19.97;nan
62800;BME280;48842;51.046;13.796;2023-09-08T03:22:11;100886.72;;;19.95;nan
62800;BME280;48842;51.046;13.796;2023-09-08T03:24:37;100884.09;;;19.94;nan
62800;BME280;48842;51.046;13.796;2023-09-08T03:27:02;100884.19;;;19.91;nan
62800;BME280;48842;51.046;13.796;2023-09-08T03:29:27;100884.22;;;19.89;nan
62800;BME280;48842;51.046;13.796;2023-09-08T03:31:53;100881.63;;;19.86;nan
62800;BME280;48842;51.046;13.796;2023-09-08T03:34:18;100881.69;;;19.83;nan
62800;BME280;48842;51.046;13.796;2023-09-08T03:36:45;100885.31;;;19.80;nan
62800;BME280;48842;51.046;13.796;2023-09-08T03:39:11;100885.38;;;19.77;nan
62800;BME280;48842;51.046;13.796;2023-09-08T03:41:36;100883.66;;;19.75;nan
62800;BME280;48842;51.046;13.796;2023-09-08T03:44:01;100877.44;;;19.74;nan
62800;BME280;48842;51.046;13.796;2023-09-08T03:46:28;100878.34;;;19.75;nan
62800;BME280;48842;51.046;13.796;2023-09-08T03:48:53;100874.78;;;19.74;nan
62800;BME280;48842;51.046;13.796;2023-09-08T03:51:24;100873.94;;;19.74;nan
62800;BME280;48842;51.046;13.796;2023-09-08T03:53:49;100875.72;;;19.73;nan
62800;BME280;48842;51.046;13.796;2023-09-08T03:56:14;100879.28;;;19.72;nan
62800;BME280;48842;51.046;13.796;2023-09-08T03:58:39;100877.53;;;19.71;nan
62800;BME280;48842;51.046;13.796;2023-09-08T04:01:05;100879.31;;;19.70;nan
62800;BME280;48842;51.046;13.796;2023-09-08T04:03:30;100880.22;;;19.69;nan
62800;BME280;48842;51.046;13.796;2023-09-08T04:05:55;100875.88;;;19.67;nan
62800;BME280;48842;51.046;13.796;2023-09-08T04:08:20;100875.94;;;19.64;nan
62800;BME280;48842;51.046;13.796;2023-09-08T04:10:45;100871.56;;;19.63;nan
62800;BME280;48842;51.046;13.796;2023-09-08T04:13:11;100873.31;;;19.62;nan
62800;BME280;48842;51.046;13.796;2023-09-08T04:15:36;100870.69;;;19.61;nan
62800;BME280;48842;51.046;13.796;2023-09-08T04:18:01;100873.47;;;19.56;nan
62800;BME280;48842;51.046;13.796;2023-09-08T04:20:27;100878.91;;;19.51;nan
62800;BME280;48842;51.046;13.796;2023-09-08T04:22:52;100874.53;;;19.49;nan
62800;BME280;48842;51.046;13.796;2023-09-08T04:25:17;100875.47;;;19.46;nan
62800;BME280;48842;51.046;13.796;2023-09-08T04:27:43;100878.88;;;19.53;nan
62800;BME280;48842;51.046;13.796;2023-09-08T04:30:10;100880.31;;;19.66;nan
62800;BME280;48842;51.046;13.796;2023-09-08T04:32:35;100886.31;;;19.75;nan
62800;BME280;48842;51.046;13.796;2023-09-08T04:35:02;100886.25;;;19.78;nan
62800;BME280;48842;51.046;13.796;2023-09-08T04:37:29;100893.34;;;19.77;nan
62800;BME280;48842;51.046;13.796;2023-09-08T04:39:56;100892.47;;;19.77;nan
62800;BME280;48842;51.046;13.796;2023-09-08T04:42:21;100890.78;;;19.73;nan
62800;BME280;48842;51.046;13.796;2023-09-08T04:44:48;100891.69;;;19.73;nan
62800;BME280;48842;51.046;13.796;2023-09-08T04:47:13;100895.31;;;19.69;nan
62800;BME280;48842;51.046;13.796;2023-09-08T04:49:38;100889.19;;;19.67;nan
62800;BME280;48842;51.046;13.796;2023-09-08T04:52:04;100883.00;;;19.65;nan
62800;BME280;48842;51.046;13.796;2023-09-08T04:54:29;100884.75;;;19.66;nan
62800;BME280;48842;51.046;13.796;2023-09-08T04:56:54;100883.88;;;19.65;nan
62800;BME280;48842;51.046;13.796;2023-09-08T04:59:21;100888.28;;;19.66;nan
62800;BME280;48842;51.046;13.796;2023-09-08T05:01:47;100890.09;;;19.66;nan
62800;BME280;48842;51.046;13.796;2023-09-08T05:04:13;100889.19;;;19.65;nan
62800;BME280;48842;51.046;13.796;2023-09-08T05:06:38;100892.78;;;19.64;nan
62800;BME280;48842;51.046;13.796;2023-09-08T05:09:03;100894.50;;;19.65;nan
62800;BME280;48842;51.046;13.796;2023-09-08T05:11:29;100890.13;;;19.64;nan
62800;BME280;48842;51.046;13.796;2023-09-08T05:13:54;100891.84;;;19.65;nan
62800;BME280;48842;51.046;13.796;2023-09-08T05:16:20;100893.59;;;19.66;nan
62800;BME280;48842;51.046;13.796;2023-09-08T05:19:01;100892.69;;;19.67;nan
62800;BME280;48842;51.046;13.796;2023-09-08T05:21:26;100897.94;;;19.70;nan
62800;BME280;48842;51.046;13.796;2023-09-08T05:23:51;100901.41;;;19.73;nan
62800;BME280;48842;51.046;13.796;2023-09-08T05:26:16;100897.84;;;19.74;nan
62800;BME280;48842;51.046;13.796;2023-09-08T05:28:42;100896.06;;;19.76;nan
62800;BME280;48842;51.046;13.796;2023-09-08T05:31:07;100894.28;;;19.75;nan
62800;BME280;48842;51.046;13.796;2023-09-08T05:33:32;100901.31;;;19.77;nan
62800;BME280;48842;51.046;13.796;2023-09-08T05:35:58;100910.88;;;19.86;nan
62800;BME280;48842;51.046;13.796;2023-09-08T05:38:23;100905.50;;;19.89;nan
62800;BME280;48842;51.046;13.796;2023-09-08T05:40:50;100910.75;;;19.91;nan
62800;BME280;48842;51.046;13.796;2023-09-08T05:43:16;100906.22;;;19.94;nan
62800;BME280;48842;51.046;13.796;2023-09-08T05:45:41;100907.91;;;19.98;nan
62800;BME280;48842;51.046;13.796;2023-09-08T05:48:06;100912.22;;;20.02;nan
62800;BME280;48842;51.046;13.796;2023-09-08T05:50:31;100913.06;;;20.04;nan
62800;BME280;48842;51.046;13.796;2023-09-08T05:52:57;100909.41;;;20.09;nan
62800;BME280;48842;51.046;13.796;2023-09-08T05:55:22;100911.97;;;20.12;nan
62800;BME280;48842;51.046;13.796;2023-09-08T05:57:47;100908.34;;;20.16;nan
62800;BME280;48842;51.046;13.796;2023-09-08T06:00:13;100914.47;;;20.19;nan
62800;BME280;48842;51.046;13.796;2023-09-08T06:02:38;100916.13;;;20.22;nan
62800;BME280;48842;51.046;13.796;2023-09-08T06:05:03;100907.16;;;20.26;nan
62800;BME280;48842;51.046;13.796;2023-09-08T06:07:29;100900.81;;;20.32;nan
62800;BME280;48842;51.046;13.796;2023-09-08T06:09:54;100894.50;;;20.36;nan
62800;BME280;48842;51.046;13.796;2023-09-08T06:12:20;100899.69;;;20.40;nan
62800;BME280;48842;51.046;13.796;2023-09-08T06:14:45;100898.69;;;20.45;nan
62800;BME280;48842;51.046;13.796;2023-09-08T06:17:10;100897.59;;;20.52;nan
62800;BME280;48842;51.046;13.796;2023-09-08T06:19:35;100897.41;;;20.58;nan
62800;BME280;48842;51.046;13.796;2023-09-08T06:22:01;100886.69;;;20.61;nan
62800;BME280;48842;51.046;13.796;2023-09-08T06:24:26;100892.75;;;20.68;nan
62800;BME280;48842;51.046;13.796;2023-09-08T06:26:52;100888.94;;;20.77;nan
62800;BME280;48842;51.046;13.796;2023-09-08T06:29:17;100890.50;;;20.84;nan
62800;BME280;48842;51.046;13.796;2023-09-08T06:31:42;100878.75;;;20.91;nan
62800;BME280;48842;51.046;13.796;2023-09-08T06:34:07;100883.88;;;20.97;nan
62800;BME280;48842;51.046;13.796;2023-09-08T06:36:33;100884.59;;;21.02;nan
62800;BME280;48842;51.046;13.796;2023-09-08T06:38:59;100883.59;;;21.06;nan
62800;BME280;48842;51.046;13.796;2023-09-08T06:41:24;100887.81;;;21.14;nan
62800;BME280;48842;51.046;13.796;2023-09-08T06:43:52;100883.97;;;21.22;nan
62800;BME280;48842;51.046;13.796;2023-09-08T06:46:17;100885.53;;;21.30;nan
62800;BME280;48842;51.046;13.796;2023-09-08T06:48:42;100884.38;;;21.38;nan
62800;BME280;48842;51.046;13.796;2023-09-08T06:51:08;100885.00;;;21.47;nan
62800;BME280;48842;51.046;13.796;2023-09-08T06:53:33;100880.41;;;21.50;nan
62800;BME280;48842;51.046;13.796;2023-09-08T06:55:58;100881.25;;;21.54;nan
62800;BME280;48842;51.046;13.796;2023-09-08T06:58:23;100879.22;;;21.60;nan
62800;BME280;48842;51.046;13.796;2023-09-08T07:00:49;100882.63;;;21.66;nan
62800;BME280;48842;51.046;13.796;2023-09-08T07:03:15;100877.13;;;21.70;nan
62800;BME280;48842;51.046;13.796;2023-09-08T07:05:41;100876.91;;;21.76;nan
62800;BME280;48842;51.046;13.796;2023-09-08T07:08:06;100877.53;;;21.85;nan
62800;BME280;48842;51.046;13.796;2023-09-08T07:10:32;100875.47;;;21.93;nan
62800;BME280;48842;51.046;13.796;2023-09-08T07:12:57;100876.81;;;22.05;nan
62800;BME280;48842;51.046;13.796;2023-09-08T07:15:24;100879.25;;;22.12;nan
62800;BME280;48842;51.046;13.796;2023-09-08T07:17:49;100874.47;;;22.21;nan
62800;BME280;48842;51.046;13.796;2023-09-08T07:20:14;100877.81;;;22.27;nan
62800;BME280;48842;51.046;13.796;2023-09-08T07:22:40;100881.97;;;22.36;nan
62800;BME280;48842;51.046;13.796;2023-09-08T07:25:05;100876.41;;;22.42;nan
62800;BME280;48842;51.046;13.796;2023-09-08T07:27:32;100875.25;;;22.49;nan
62800;BME280;48842;51.046;13.796;2023-09-08T07:29:57;100872.28;;;22.57;nan
62800;BME280;48842;51.046;13.796;2023-09-08T07:32:23;100877.38;;;22.65;nan
62800;BME280;48842;51.046;13.796;2023-09-08T07:34:49;100876.22;;;22.72;nan
62800;BME280;48842;51.046;13.796;2023-09-08T07:37:20;100872.38;;;22.79;nan
62800;BME280;48842;51.046;13.796;2023-09-08T07:39:46;100874.75;;;22.87;nan
62800;BME280;48842;51.046;13.796;2023-09-08T07:42:11;100872.69;;;22.94;nan
62800;BME280;48842;51.046;13.796;2023-09-08T07:44:36;100875.13;;;23.00;nan
62800;BME280;48842;51.046;13.796;2023-09-08T07:47:02;100874.88;;;23.06;nan
62800;BME280;48842;51.046;13.796;2023-09-08T07:49:27;100871.06;;;23.13;nan
62800;BME280;48842;51.046;13.796;2023-09-08T07:51:52;100873.38;;;23.23;nan
62800;BME280;48842;51.046;13.796;2023-09-08T07:54:18;100873.94;;;23.31;nan
62800;BME280;48842;51.046;13.796;2023-09-08T07:56:43;100879.03;;;23.37;nan
62800;BME280;48842;51.046;13.796;2023-09-08T07:59:08;100876.16;;;23.42;nan
62800;BME280;48842;51.046;13.796;2023-09-08T08:01:34;100871.44;;;23.48;nan
62800;BME280;48842;51.046;13.796;2023-09-08T08:03:59;100871.19;;;23.55;nan
62800;BME280;48842;51.046;13.796;2023-09-08T08:06:24;100876.28;;;23.61;nan
62800;BME280;48842;51.046;13.796;2023-09-08T08:08:49;100876.91;;;23.67;nan
62800;BME280;48842;51.046;13.796;2023-09-08T08:11:16;100872.28;;;23.71;nan
62800;BME280;48842;51.046;13.796;2023-09-08T08:13:43;100872.03;;;23.77;nan
62800;BME280;48842;51.046;13.796;2023-09-08T08:16:08;100878.97;;;23.81;nan
62800;BME280;48842;51.046;13.796;2023-09-08T08:18:33;100874.28;;;23.88;nan
62800;BME280;48842;51.046;13.796;2023-09-08T08:20:59;100870.31;;;23.97;nan
62800;BME280;48842;51.046;13.796;2023-09-08T08:23:25;100865.63;;;24.02;nan
62800;BME280;48842;51.046;13.796;2023-09-08T08:25:51;100868.78;;;24.12;nan
62800;BME280;48842;51.046;13.796;2023-09-08T08:28:16;100862.22;;;24.19;nan
62800;BME280;48842;51.046;13.796;2023-09-08T08:30:41;100862.91;;;24.24;nan
62800;BME280;48842;51.046;13.796;2023-09-08T08:33:07;100854.66;;;24.29;nan
62800;BME280;48842;51.046;13.796;2023-09-08T08:35:32;100858.03;;;24.32;nan
62800;BME280;48842;51.046;13.796;2023-09-08T08:37:58;100852.41;;;24.38;nan
62800;BME280;48842;51.046;13.796;2023-09-08T08:40:25;100854.00;;;24.43;nan
62800;BME280;48842;51.046;13.796;2023-09-08T08:42:54;100859.97;;;24.49;nan
62800;BME280;48842;51.046;13.796;2023-09-08T08:45:23;100856.22;;;24.53;nan
62800;BME280;48842;51.046;13.796;2023-09-08T08:47:49;100853.31;;;24.58;nan
62800;BME280;48842;51.046;13.796;2023-09-08T08:50:15;100852.19;;;24.64;nan
62800;BME280;48842;51.046;13.796;2023-09-08T08:52:42;100844.78;;;24.69;nan
62800;BME280;48842;51.046;13.796;2023-09-08T08:55:08;100849.06;;;24.73;nan
62800;BME280;48842;51.046;13.796;2023-09-08T08:57:33;100836.41;;;24.77;nan
62800;BME280;48842;51.046;13.796;2023-09-08T08:59:59;100841.69;;;24.78;nan
62800;BME280;48842;51.046;13.796;2023-09-08T09:02:25;100836.97;;;24.83;nan
62800;BME280;48842;51.046;13.796;2023-09-08T09:04:52;100834.06;;;24.88;nan
62800;BME280;48842;51.046;13.796;2023-09-08T09:07:18;100832.19;;;24.90;nan
62800;BME280;48842;51.046;13.796;2023-09-08T09:09:44;100832.91;;;24.94;nan
62800;BME280;48842;51.046;13.796;2023-09-08T09:12:10;100836.31;;;24.97;nan
62800;BME280;48842;51.046;13.796;2023-09-08T09:14:35;100833.25;;;25.05;nan
62800;BME280;48842;51.046;13.796;2023-09-08T09:17:01;100837.53;;;25.09;nan
62800;BME280;48842;51.046;13.796;2023-09-08T09:19:26;100825.66;;;25.15;nan
62800;BME280;48842;51.046;13.796;2023-09-08T09:21:57;100827.19;;;25.19;nan
62800;BME280;48842;51.046;13.796;2023-09-08T09:26:56;100820.50;;;25.27;nan
62800;BME280;48842;51.046;13.796;2023-09-08T09:29:21;100827.34;;;25.35;nan
62800;BME280;48842;51.046;13.796;2023-09-08T09:32:11;100811.91;;;25.40;nan
62800;BME280;48842;51.046;13.796;2023-09-08T09:34:50;100816.88;;;25.48;nan
62800;BME280;48842;51.046;13.796;2023-09-08T09:37:18;100819.19;;;25.55;nan
62800;BME280;48842;51.046;13.796;2023-09-08T09:39:48;100810.91;;;25.60;nan
62800;BME280;48842;51.046;13.796;2023-09-08T09:42:13;100807.88;;;25.66;nan
62800;BME280;48842;51.046;13.796;2023-09-08T09:44:40;100804.03;;;25.72;nan
62800;BME280;48842;51.046;13.796;2023-09-08T09:47:07;100801.94;;;25.77;nan
62800;BME280;48842;51.046;13.796;2023-09-08T09:49:42;100807.78;;;25.85;nan
62800;BME280;48842;51.046;13.796;2023-09-08T09:52:07;100799.41;;;25.91;nan
62800;BME280;48842;51.046;13.796;2023-09-08T09:54:33;100806.34;;;25.95;nan
62800;BME280;48842;51.046;13.796;2023-09-08T09:56:58;100806.06;;;26.02;nan
62800;BME280;48842;51.046;13.796;2023-09-08T09:59:24;100805.88;;;26.05;nan
62800;BME280;48842;51.046;13.796;2023-09-08T10:01:49;100800.44;;;26.06;nan
62800;BME280;48842;51.046;13.796;2023-09-08T10:04:15;100807.47;;;26.09;nan
62800;BME280;48842;51.046;13.796;2023-09-08T10:06:41;100801.75;;;26.15;nan
62800;BME280;48842;51.046;13.796;2023-09-08T10:09:07;100806.00;;;26.19;nan
62800;BME280;48842;51.046;13.796;2023-09-08T10:11:45;100790.69;;;26.21;nan
62800;BME280;48842;51.046;13.796;2023-09-08T10:14:12;100798.41;;;26.27;nan
62800;BME280;48842;51.046;13.796;2023-09-08T10:16:39;100803.53;;;26.32;nan
62800;BME280;48842;51.046;13.796;2023-09-08T10:19:08;100801.47;;;26.37;nan
62800;BME280;48842;51.046;13.796;2023-09-08T10:21:38;100802.16;;;26.41;nan
62800;BME280;48842;51.046;13.796;2023-09-08T10:24:12;100795.75;;;26.43;nan
62800;BME280;48842;51.046;13.796;2023-09-08T10:26:40;100791.88;;;26.49;nan
62800;BME280;48842;51.046;13.796;2023-09-08T10:29:09;100786.22;;;26.54;nan
62800;BME280;48842;51.046;13.796;2023-09-08T10:31:35;100790.31;;;26.61;nan
62800;BME280;48842;51.046;13.796;2023-09-08T10:34:02;100790.13;;;26.64;nan
62800;BME280;48842;51.046;13.796;2023-09-08T10:36:28;100788.16;;;26.68;nan
62800;BME280;48842;51.046;13.796;2023-09-08T10:38:54;100784.34;;;26.72;nan
62800;BME280;48842;51.046;13.796;2023-09-08T10:43:57;100783.13;;;26.77;nan
62800;BME280;48842;51.046;13.796;2023-09-08T10:46:26;100782.00;;;26.81;nan
62800;BME280;48842;51.046;13.796;2023-09-08T10:48:56;100779.25;;;26.83;nan
62800;BME280;48842;51.046;13.796;2023-09-08T10:51:26;100769.06;;;26.88;nan
62800;BME280;48842;51.046;13.796;2023-09-08T10:53:51;100771.59;;;26.91;nan
62800;BME280;48842;51.046;13.796;2023-09-08T10:56:16;100771.34;;;26.96;nan
62800;BME280;48842;51.046;13.796;2023-09-08T10:58:43;100767.53;;;27.00;nan
62800;BME280;48842;51.046;13.796;2023-09-08T11:01:20;100769.13;;;27.03;nan
62800;BME280;48842;51.046;13.796;2023-09-08T11:03:51;100769.75;;;27.08;nan
62800;BME280;48842;51.046;13.796;2023-09-08T11:06:17;100764.19;;;27.11;nan
62800;BME280;48842;51.046;13.796;2023-09-08T11:08:49;100765.94;;;27.12;nan
62800;BME280;48842;51.046;13.796;2023-09-08T11:11:18;100761.41;;;27.12;nan
62800;BME280;48842;51.046;13.796;2023-09-08T11:13:43;100764.00;;;27.14;nan
62800;BME280;48842;51.046;13.796;2023-09-08T11:16:13;100766.41;;;27.18;nan
62800;BME280;48842;51.046;13.796;2023-09-08T11:18:38;100767.03;;;27.24;nan
62800;BME280;48842;51.046;13.796;2023-09-08T11:21:07;100771.38;;;27.26;nan
62800;BME280;48842;51.046;13.796;2023-09-08T11:23:39;100769.34;;;27.30;nan
62800;BME280;48842;51.046;13.796;2023-09-08T11:26:06;100764.66;;;27.33;nan
62800;BME280;48842;51.046;13.796;2023-09-08T11:28:31;100765.47;;;27.36;nan
62800;BME280;48842;51.046;13.796;2023-09-08T11:30:57;100768.06;;;27.37;nan
62800;BME280;48842;51.046;13.796;2023-09-08T11:33:24;100761.53;;;27.41;nan
62800;BME280;48842;51.046;13.796;2023-09-08T11:35:53;100758.56;;;27.46;nan
62800;BME280;48842;51.046;13.796;2023-09-08T11:38:28;100746.66;;;27.50;nan
62800;BME280;48842;51.046;13.796;2023-09-08T11:40:56;100750.91;;;27.54;nan
62800;BME280;48842;51.046;13.796;2023-09-08T11:43:22;100749.38;;;27.64;nan
62800;BME280;48842;51.046;13.796;2023-09-08T11:45:48;100741.78;;;27.71;nan
62800;BME280;48842;51.046;13.796;2023-09-08T11:48:14;100743.31;;;27.75;nan
62800;BME280;48842;51.046;13.796;2023-09-08T11:50:41;100744.97;;;27.78;nan
62800;BME280;48842;51.046;13.796;2023-09-08T11:53:06;100741.13;;;27.82;nan
62800;BME280;48842;51.046;13.796;2023-09-08T11:55:32;100739.97;;;27.86;nan
62800;BME280;48842;51.046;13.796;2023-09-08T11:57:57;100739.78;;;27.89;nan
62800;BME280;48842;51.046;13.796;2023-09-08T12:00:25;100737.66;;;27.94;nan
62800;BME280;48842;51.046;13.796;2023-09-08T12:02:51;100734.69;;;27.99;nan
62800;BME280;48842;51.046;13.796;2023-09-08T12:05:24;100744.44;;;28.01;nan
62800;BME280;48842;51.046;13.796;2023-09-08T12:07:54;100736.16;;;28.04;nan
62800;BME280;48842;51.046;13.796;2023-09-08T12:10:21;100747.63;;;28.08;nan
62800;BME280;48842;51.046;13.796;2023-09-08T12:12:49;100739.34;;;28.11;nan
62800;BME280;48842;51.046;13.796;2023-09-08T12:15:34;100735.66;;;28.12;nan
62800;BME280;48842;51.046;13.796;2023-09-08T12:18:01;100728.34;;;28.14;nan
62800;BME280;48842;51.046;13.796;2023-09-08T12:20:27;100723.81;;;28.15;nan
62800;BME280;48842;51.046;13.796;2023-09-08T12:22:52;100729.13;;;28.16;nan
62800;BME280;48842;51.046;13.796;2023-09-08T12:25:18;100722.56;;;28.20;nan
62800;BME280;48842;51.046;13.796;2023-09-08T12:27:45;100724.00;;;28.26;nan
62800;BME280;48842;51.046;13.796;2023-09-08T12:30:21;100709.47;;;28.29;nan
62800;BME280;48842;51.046;13.796;2023-09-08T12:32:48;100706.47;;;28.33;nan
62800;BME280;48842;51.046;13.796;2023-09-08T12:35:20;100709.94;;;28.35;nan
62800;BME280;48842;51.046;13.796;2023-09-08T12:37:46;100697.88;;;28.41;nan
62800;BME280;48842;51.046;13.796;2023-09-08T12:40:12;100702.22;;;28.44;nan
62800;BME280;48842;51.046;13.796;2023-09-08T12:42:40;100701.81;;;28.50;nan
62800;BME280;48842;51.046;13.796;2023-09-08T12:45:06;100699.91;;;28.52;nan
62800;BME280;48842;51.046;13.796;2023-09-08T12:47:31;100688.69;;;28.58;nan
62800;BME280;48842;51.046;13.796;2023-09-08T12:49:57;100689.84;;;28.68;nan
62800;BME280;48842;51.046;13.796;2023-09-08T12:52:22;100687.31;;;28.80;nan
62800;BME280;48842;51.046;13.796;2023-09-08T12:54:47;100680.22;;;28.92;nan
62800;BME280;48842;51.046;13.796;2023-09-08T12:57:12;100687.34;;;29.05;nan
62800;BME280;48842;51.046;13.796;2023-09-08T12:59:38;100681.13;;;29.18;nan
62800;BME280;48842;51.046;13.796;2023-09-08T13:02:03;100683.97;;;29.29;nan
62800;BME280;48842;51.046;13.796;2023-09-08T13:04:29;100677.94;;;29.38;nan